Time;durP1;ratioP1;P1;durP2;ratioP2;P2;SDS_P1;SDS_P2;PMS_P1;PMS_P2;Temp;Humidity;BMP_temperature;BMP_pressure;BME280_temperature;BME280_humidity;BME280_pressure;Samples;Min_cycle;Max_cycle;Signal;HPM_P1;HPM_P2
2023/04/21 00:00:59;;;;;;;;;;;;;;;;;;2204067;59;14216;-26
2023/04/21 00:03:32;;;;;;;;;;;;;;;;;;2207476;59;1999;-26
2023/04/21 00:06:05;;;;;;;;;;;;;;;;;;2203479;59;1483;-26
2023/04/21 00:08:39;;;;;;;;;;;;;;;;;;2203727;59;1677;-26
2023/04/21 00:11:09;;;;;;;;;;;;;;;;;;2207157;67;1616;-26
2023/04/21 00:13:39;;;;;;;;;;;;;;;;;;2207114;67;1224;-26
2023/04/21 00:16:09;;;;;;;;;;;;;;;;;;2203498;59;12736;-26
2023/04/21 00:18:40;;;;;;;;;;;;;;;;;;2206918;67;3030;-26
2023/04/21 00:21:13;;;;;;;;;;;;;;;;;;2206165;67;1120;-26
2023/04/21 00:23:43;;;;;;;;;;;;;;;;;;2202701;67;2008;-26
2023/04/21 00:26:13;;;;;;;;;;;;;;;;;;2208436;67;1217;-26
2023/04/21 00:28:43;;;;;;;;;;;;;;;;;;2208043;59;1365;-26
2023/04/21 00:31:14;;;;;;;;;;;;;;;;;;2201317;59;12591;-26
2023/04/21 00:33:44;;;;;;;;;;;;;;;;;;2206995;59;1268;-26
2023/04/21 00:36:14;;;;;;;;;;;;;;;;;;2206846;67;1482;-26
2023/04/21 00:38:44;;;;;;;;;;;;;;;;;;2208779;67;1220;-26
2023/04/21 00:41:14;;;;;;;;;;;;;;;;;;2203719;59;1137;-26
2023/04/21 00:44:01;;;;;;;;;;;;;;;;;;2207920;59;1923;-26
2023/04/21 00:46:32;;;;;;;;;;;;;;;;;;2203700;67;1845;-26
2023/04/21 00:49:04;;;;;;;;;;;;;;;;;;2206536;67;1776;-26
2023/04/21 00:51:35;;;;;;;;;;;;;;;;;;2208435;67;1290;-26
2023/04/21 00:54:10;;;;;;;;;;;;;;;;;;2209856;53;1869;-22
2023/04/21 00:56:40;;;;;;;;;;;;;;;;;;2200844;59;1607;-22
2023/04/21 00:59:10;;;;;;;;;;;;;;;;;;2201913;59;1576;-20
2023/04/21 01:01:41;;;;;;;;;;;;;;;;;;2200525;59;2215;-20
2023/04/21 01:04:11;;;;;;;;;;;;;;;;;;2202386;59;2321;-20
2023/04/21 01:06:42;;;;;;;;;;;;;;;;;;2202048;67;1103;-20
2023/04/21 01:09:12;;;;;;;;;;;;;;;;;;2201044;67;1640;-20
2023/04/21 01:11:58;;;;;;;;;;;;;;;;;;2203549;59;1061;-20
2023/04/21 01:18:11;;;;;;;;;;;;;;;;;;2193568;59;3157;-20
2023/04/21 01:20:43;;;;;;;;;;;;;;;;;;2194253;59;12808;-20
2023/04/21 01:23:13;;;;;;;;;;;;;;;;;;2200355;59;2982;-20
2023/04/21 01:25:44;;;;;;;;;;;;;;;;;;2199204;67;2065;-20
2023/04/21 01:28:14;;;;;;;;;;;;;;;;;;2200809;59;2589;-20
2023/04/21 01:30:44;;;;;;;;;;;;;;;;;;2199259;59;12079;-20
2023/04/21 01:33:15;;;;;;;;;;;;;;;;;;2201422;59;3187;-20
2023/04/21 01:35:46;;;;;;;;;;;;;;;;;;2200861;67;2323;-20
2023/04/21 01:38:19;;;;;;;;;;;;;;;;;;2201097;67;2240;-20
2023/04/21 01:40:50;;;;;;;;;;;;;;;;;;2199687;59;3289;-20
2023/04/21 01:43:21;;;;;;;;;;;;;;;;;;2199964;67;2836;-20
2023/04/21 01:45:52;;;;;;;;;;;;;;;;;;2198578;59;13913;-20
2023/04/21 01:48:22;;;;;;;;;;;;;;;;;;2201565;67;2127;-20
2023/04/21 01:50:52;;;;;;;;;;;;;;;;;;2202106;59;2334;-20
2023/04/21 01:53:22;;;;;;;;;;;;;;;;;;2201184;59;2609;-20
2023/04/21 01:55:53;;;;;;;;;;;;;;;;;;2200298;59;2933;-20
2023/04/21 01:58:23;;;;;;;;;;;;;;;;;;2201207;59;2145;-22
2023/04/21 02:00:53;;;;;;;;;;;;;;;;;;2198352;59;18987;-22
2023/04/21 02:03:23;;;;;;;;;;;;;;;;;;2200644;59;2099;-22
2023/04/21 02:05:54;;;;;;;;;;;;;;;;;;2200642;59;2025;-22
2023/04/21 02:08:24;;;;;;;;;;;;;;;;;;2201196;67;2860;-22
2023/04/21 02:10:54;;;;;;;;;;;;;;;;;;2200871;59;3957;-22
2023/04/21 02:13:24;;;;;;;;;;;;;;;;;;2201071;67;2548;-22
2023/04/21 02:15:54;;;;;;;;;;;;;;;;;;2199211;59;12745;-22
2023/04/21 02:18:25;;;;;;;;;;;;;;;;;;2203889;60;2652;-22
2023/04/21 02:20:55;;;;;;;;;;;;;;;;;;2201212;59;2853;-22
2023/04/21 02:23:25;;;;;;;;;;;;;;;;;;2202534;67;2690;-22
2023/04/21 02:25:55;;;;;;;;;;;;;;;;;;2201386;67;2424;-22
2023/04/21 02:28:30;;;;;;;;;;;;;;;;;;2202277;59;2568;-22
2023/04/21 02:31:00;;;;;;;;;;;;;;;;;;2202514;59;2963;-22
2023/04/21 02:33:30;;;;;;;;;;;;;;;;;;2202172;59;2094;-22
2023/04/21 02:36:01;;;;;;;;;;;;;;;;;;2200475;67;2010;-22
2023/04/21 02:38:31;;;;;;;;;;;;;;;;;;2200079;59;2089;-22
2023/04/21 02:41:01;;;;;;;;;;;;;;;;;;2200904;59;2155;-22
2023/04/21 02:43:31;;;;;;;;;;;;;;;;;;2201378;59;2194;-22
2023/04/21 02:46:06;;;;;;;;;;;;;;;;;;2197035;59;15312;-22
2023/04/21 02:48:36;;;;;;;;;;;;;;;;;;2195695;59;1971;-22
2023/04/21 02:51:10;;;;;;;;;;;;;;;;;;2200308;67;2581;-22
2023/04/21 02:53:40;;;;;;;;;;;;;;;;;;2200373;59;1914;-22
2023/04/21 02:56:11;;;;;;;;;;;;;;;;;;2201004;67;2232;-22
2023/04/21 02:58:41;;;;;;;;;;;;;;;;;;2201637;67;1944;-22
2023/04/21 03:01:11;;;;;;;;;;;;;;;;;;2198274;59;13758;-22
2023/04/21 03:03:41;;;;;;;;;;;;;;;;;;2200218;59;2448;-22
2023/04/21 03:06:12;;;;;;;;;;;;;;;;;;2200240;59;1991;-22
2023/04/21 03:08:42;;;;;;;;;;;;;;;;;;2202366;67;1828;-22
2023/04/21 03:11:12;;;;;;;;;;;;;;;;;;2200144;67;1698;-22
2023/04/21 03:13:42;;;;;;;;;;;;;;;;;;2201449;67;2089;-22
2023/04/21 03:16:13;;;;;;;;;;;;;;;;;;2198582;59;15029;-22
2023/04/21 03:18:43;;;;;;;;;;;;;;;;;;2201052;67;2152;-22
2023/04/21 03:21:13;;;;;;;;;;;;;;;;;;2201136;59;2781;-22
2023/04/21 03:23:43;;;;;;;;;;;;;;;;;;2201654;67;1975;-22
2023/04/21 03:26:14;;;;;;;;;;;;;;;;;;2201439;67;1985;-22
2023/04/21 03:28:44;;;;;;;;;;;;;;;;;;2200755;67;2180;-22
2023/04/21 03:31:14;;;;;;;;;;;;;;;;;;2197561;59;15851;-22
2023/04/21 03:33:44;;;;;;;;;;;;;;;;;;2202502;59;2580;-22
2023/04/21 03:36:15;;;;;;;;;;;;;;;;;;2201900;67;2126;-22
2023/04/21 03:38:45;;;;;;;;;;;;;;;;;;2201464;67;2224;-22
2023/04/21 03:41:15;;;;;;;;;;;;;;;;;;2201970;67;2116;-22
2023/04/21 03:43:45;;;;;;;;;;;;;;;;;;2200681;67;2906;-21
2023/04/21 03:46:16;;;;;;;;;;;;;;;;;;2198542;59;12807;-22
2023/04/21 03:48:47;;;;;;;;;;;;;;;;;;2201054;59;2300;-22
2023/04/21 03:51:17;;;;;;;;;;;;;;;;;;2201336;67;2012;-22
2023/04/21 03:53:47;;;;;;;;;;;;;;;;;;2200966;59;2226;-22
2023/04/21 03:56:17;;;;;;;;;;;;;;;;;;2201367;59;2684;-22
2023/04/21 03:58:48;;;;;;;;;;;;;;;;;;2202357;59;3230;-22
2023/04/21 04:01:18;;;;;;;;;;;;;;;;;;2202575;59;2017;-22
2023/04/21 04:03:49;;;;;;;;;;;;;;;;;;2201839;59;2128;-20
2023/04/21 04:06:19;;;;;;;;;;;;;;;;;;2201557;59;2280;-20
2023/04/21 04:08:50;;;;;;;;;;;;;;;;;;2202876;67;2757;-20
2023/04/21 04:11:20;;;;;;;;;;;;;;;;;;2202556;67;2554;-20
2023/04/21 04:13:50;;;;;;;;;;;;;;;;;;2202593;67;2037;-20
2023/04/21 04:16:20;;;;;;;;;;;;;;;;;;2199062;67;19715;-20
2023/04/21 04:18:51;;;;;;;;;;;;;;;;;;2197377;59;2194;-20
2023/04/21 04:21:21;;;;;;;;;;;;;;;;;;2199610;59;2480;-20
2023/04/21 04:23:52;;;;;;;;;;;;;;;;;;2198629;67;2385;-20
2023/04/21 04:26:23;;;;;;;;;;;;;;;;;;2201553;67;2659;-20
2023/04/21 04:28:55;;;;;;;;;;;;;;;;;;2200830;59;2394;-20
2023/04/21 04:31:25;;;;;;;;;;;;;;;;;;2198493;59;14940;-20
2023/04/21 04:33:56;;;;;;;;;;;;;;;;;;2202181;59;2704;-20
2023/04/21 04:36:27;;;;;;;;;;;;;;;;;;2202617;67;2162;-20
2023/04/21 04:39:00;;;;;;;;;;;;;;;;;;2202345;59;2749;-20
2023/04/21 04:41:32;;;;;;;;;;;;;;;;;;2202462;67;2018;-20
2023/04/21 04:44:03;;;;;;;;;;;;;;;;;;2200756;67;3715;-20
2023/04/21 04:46:34;;;;;;;;;;;;;;;;;;2200108;67;13229;-20
2023/04/21 04:49:04;;;;;;;;;;;;;;;;;;2201215;67;2900;-20
2023/04/21 04:51:34;;;;;;;;;;;;;;;;;;2201547;67;2072;-20
2023/04/21 04:54:05;;;;;;;;;;;;;;;;;;2198037;59;2403;-20
2023/04/21 04:56:36;;;;;;;;;;;;;;;;;;2203492;59;2659;-20
2023/04/21 04:59:07;;;;;;;;;;;;;;;;;;2202080;59;2243;-20
2023/04/21 05:01:38;;;;;;;;;;;;;;;;;;2199320;59;12222;-20
2023/04/21 05:04:09;;;;;;;;;;;;;;;;;;2201705;59;3044;-20
2023/04/21 05:06:39;;;;;;;;;;;;;;;;;;2201771;67;3009;-20
2023/04/21 05:09:09;;;;;;;;;;;;;;;;;;2201384;59;1770;-20
2023/04/21 05:11:39;;;;;;;;;;;;;;;;;;2201690;62;2331;-20
2023/04/21 05:14:13;;;;;;;;;;;;;;;;;;2202402;67;2788;-20
2023/04/21 05:16:49;;;;;;;;;;;;;;;;;;2202489;67;2234;-20
2023/04/21 05:19:19;;;;;;;;;;;;;;;;;;2202228;60;1904;-20
2023/04/21 05:21:49;;;;;;;;;;;;;;;;;;2201143;59;2750;-20
2023/04/21 05:24:23;;;;;;;;;;;;;;;;;;2202507;67;2113;-20
2023/04/21 05:26:53;;;;;;;;;;;;;;;;;;2203052;67;2289;-20
2023/04/21 05:29:23;;;;;;;;;;;;;;;;;;2202172;59;2036;-20
2023/04/21 05:31:53;;;;;;;;;;;;;;;;;;2200225;59;13677;-20
2023/04/21 05:34:24;;;;;;;;;;;;;;;;;;2201469;59;2967;-20
2023/04/21 05:36:54;;;;;;;;;;;;;;;;;;2202806;67;2947;-20
2023/04/21 05:39:25;;;;;;;;;;;;;;;;;;2201679;67;2612;-20
2023/04/21 05:41:56;;;;;;;;;;;;;;;;;;2201474;67;2266;-20
2023/04/21 05:44:26;;;;;;;;;;;;;;;;;;2202549;67;2325;-20
2023/04/21 05:46:56;;;;;;;;;;;;;;;;;;2201093;59;16755;-20
2023/04/21 05:49:26;;;;;;;;;;;;;;;;;;2205060;67;2934;-21
2023/04/21 05:51:57;;;;;;;;;;;;;;;;;;2204260;59;2501;-20
2023/04/21 05:54:27;;;;;;;;;;;;;;;;;;2202660;59;2060;-20
2023/04/21 05:56:57;;;;;;;;;;;;;;;;;;2201538;59;2287;-20
2023/04/21 05:59:27;;;;;;;;;;;;;;;;;;2202177;59;2829;-20
2023/04/21 06:01:58;;;;;;;;;;;;;;;;;;2197859;59;12923;-20
2023/04/21 06:04:28;;;;;;;;;;;;;;;;;;2202109;59;2177;-20
2023/04/21 06:07:03;;;;;;;;;;;;;;;;;;2200397;67;2366;-20
2023/04/21 06:09:37;;;;;;;;;;;;;;;;;;2201655;67;2672;-20
2023/04/21 06:12:07;;;;;;;;;;;;;;;;;;2204367;59;2876;-20
2023/04/21 06:14:38;;;;;;;;;;;;;;;;;;2204042;67;2112;-20
2023/04/21 06:17:08;;;;;;;;;;;;;;;;;;2202442;59;14272;-20
2023/04/21 06:19:41;;;;;;;;;;;;;;;;;;2203693;59;2186;-20
2023/04/21 06:22:11;;;;;;;;;;;;;;;;;;2204441;59;2939;-20
2023/04/21 06:24:42;;;;;;;;;;;;;;;;;;2204850;59;2481;-20
2023/04/21 06:27:12;;;;;;;;;;;;;;;;;;2205312;59;2579;-20
2023/04/21 06:29:43;;;;;;;;;;;;;;;;;;2202682;59;2333;-20
2023/04/21 06:32:13;;;;;;;;;;;;;;;;;;2199557;59;12979;-20
2023/04/21 06:34:43;;;;;;;;;;;;;;;;;;2202966;59;2151;-20
2023/04/21 06:37:13;;;;;;;;;;;;;;;;;;2201955;59;2106;-20
2023/04/21 06:39:44;;;;;;;;;;;;;;;;;;2205579;67;2046;-20
2023/04/21 06:42:14;;;;;;;;;;;;;;;;;;2200490;59;2123;-20
2023/04/21 06:44:45;;;;;;;;;;;;;;;;;;2200047;59;2342;-20
2023/04/21 06:47:15;;;;;;;;;;;;;;;;;;2197792;59;2149;-20
2023/04/21 06:49:45;;;;;;;;;;;;;;;;;;2199709;67;3023;-20
2023/04/21 06:52:16;;;;;;;;;;;;;;;;;;2201875;59;2845;-20
2023/04/21 06:54:46;;;;;;;;;;;;;;;;;;2211073;54;2160;-24
2023/04/21 06:57:19;;;;;;;;;;;;;;;;;;2207066;62;1996;-24
2023/04/21 06:59:49;;;;;;;;;;;;;;;;;;2210676;59;2630;-24
2023/04/21 07:02:22;;;;;;;;;;;;;;;;;;2209031;59;17277;-24
2023/04/21 07:04:53;;;;;;;;;;;;;;;;;;2209499;59;2356;-24
2023/04/21 07:07:23;;;;;;;;;;;;;;;;;;2207830;60;2293;-24
2023/04/21 07:09:53;;;;;;;;;;;;;;;;;;2205146;59;3204;-24
2023/04/21 07:12:23;;;;;;;;;;;;;;;;;;2206779;59;2154;-24
2023/04/21 07:14:53;;;;;;;;;;;;;;;;;;2207289;59;2240;-24
2023/04/21 07:17:24;;;;;;;;;;;;;;;;;;2202294;59;19266;-24
2023/04/21 07:19:54;;;;;;;;;;;;;;;;;;2202244;59;3463;-24
2023/04/21 07:22:24;;;;;;;;;;;;;;;;;;2201554;67;2957;-24
2023/04/21 07:24:54;;;;;;;;;;;;;;;;;;2205603;59;2758;-24
2023/04/21 07:27:25;;;;;;;;;;;;;;;;;;2203190;59;2332;-22
2023/04/21 07:29:55;;;;;;;;;;;;;;;;;;2206763;59;2611;-24
2023/04/21 07:32:25;;;;;;;;;;;;;;;;;;2203023;59;16867;-24
2023/04/21 07:34:55;;;;;;;;;;;;;;;;;;2205418;59;2137;-24
2023/04/21 07:37:26;;;;;;;;;;;;;;;;;;2205393;67;2384;-24
2023/04/21 07:39:56;;;;;;;;;;;;;;;;;;2201380;59;2429;-22
2023/04/21 07:42:26;;;;;;;;;;;;;;;;;;2206056;59;3312;-22
2023/04/21 07:44:56;;;;;;;;;;;;;;;;;;2205163;59;2651;-22
2023/04/21 07:47:27;;;;;;;;;;;;;;;;;;2201915;67;16273;-22
2023/04/21 07:49:57;;;;;;;;;;;;;;;;;;2202127;59;2254;-22
2023/04/21 07:52:27;;;;;;;;;;;;;;;;;;2206202;59;2027;-22
2023/04/21 07:54:58;;;;;;;;;;;;;;;;;;2205893;59;2862;-22
2023/04/21 07:57:30;;;;;;;;;;;;;;;;;;2205181;59;2342;-22
2023/04/21 08:00:00;;;;;;;;;;;;;;;;;;2205717;59;2034;-22
2023/04/21 08:02:34;;;;;;;;;;;;;;;;;;2205959;59;2731;-22
2023/04/21 08:05:04;;;;;;;;;;;;;;;;;;2205283;59;2519;-22
2023/04/21 08:07:34;;;;;;;;;;;;;;;;;;2203500;59;2181;-22
2023/04/21 08:10:05;;;;;;;;;;;;;;;;;;2206231;59;2811;-22
2023/04/21 08:12:35;;;;;;;;;;;;;;;;;;2206294;67;2685;-22
2023/04/21 08:15:07;;;;;;;;;;;;;;;;;;2204326;59;2470;-22
2023/04/21 08:17:37;;;;;;;;;;;;;;;;;;2203165;59;13738;-22
2023/04/21 08:20:08;;;;;;;;;;;;;;;;;;2205522;59;2214;-22
2023/04/21 08:22:41;;;;;;;;;;;;;;;;;;2206298;59;2164;-22
2023/04/21 08:25:11;;;;;;;;;;;;;;;;;;2200008;59;2873;-22
2023/04/21 08:27:42;;;;;;;;;;;;;;;;;;2205661;59;2303;-23
2023/04/21 08:30:13;;;;;;;;;;;;;;;;;;2203284;59;2370;-22
2023/04/21 08:32:43;;;;;;;;;;;;;;;;;;2204526;59;12548;-22
2023/04/21 08:35:13;;;;;;;;;;;;;;;;;;2203967;59;3465;-22
2023/04/21 08:37:44;;;;;;;;;;;;;;;;;;2205719;59;2383;-22
2023/04/21 08:40:17;;;;;;;;;;;;;;;;;;2205070;59;2473;-22
2023/04/21 08:42:48;;;;;;;;;;;;;;;;;;2205274;59;2156;-22
2023/04/21 08:45:18;;;;;;;;;;;;;;;;;;2199043;59;16190;-23
2023/04/21 08:47:53;;;;;;;;;;;;;;;;;;2205306;67;3507;-22
2023/04/21 08:50:26;;;;;;;;;;;;;;;;;;2202948;59;3437;-22
2023/04/21 08:52:59;;;;;;;;;;;;;;;;;;2205864;59;2169;-22
2023/04/21 08:55:30;;;;;;;;;;;;;;;;;;2202340;59;2679;-22
2023/04/21 08:58:02;;;;;;;;;;;;;;;;;;2198373;59;3367;-22
2023/04/21 09:00:33;;;;;;;;;;;;;;;;;;2206407;67;1944;-22
2023/04/21 09:03:06;;;;;;;;;;;;;;;;;;2206441;59;2281;-23
2023/04/21 09:05:36;;;;;;;;;;;;;;;;;;2206467;59;2868;-22
2023/04/21 09:08:11;;;;;;;;;;;;;;;;;;2204687;59;7232;-23
2023/04/21 09:10:48;;;;;;;;;;;;;;;;;;2206894;67;2478;-22
2023/04/21 09:13:18;;;;;;;;;;;;;;;;;;2206663;67;2622;-22
2023/04/21 09:15:51;;;;;;;;;;;;;;;;;;2204770;59;12561;-22
2023/04/21 09:18:25;;;;;;;;;;;;;;;;;;2206372;59;2701;-22
2023/04/21 09:21:06;;;;;;;;;;;;;;;;;;2203731;59;2982;-22
2023/04/21 09:23:42;;;;;;;;;;;;;;;;;;2202750;67;2526;-22
2023/04/21 09:26:13;;;;;;;;;;;;;;;;;;2204933;59;3034;-22
2023/04/21 09:28:44;;;;;;;;;;;;;;;;;;2203835;59;2129;-22
2023/04/21 09:31:18;;;;;;;;;;;;;;;;;;2203941;59;15053;-22
2023/04/21 09:33:53;;;;;;;;;;;;;;;;;;2206860;59;2726;-21
2023/04/21 09:36:25;;;;;;;;;;;;;;;;;;2206978;67;2415;-22
2023/04/21 09:38:58;;;;;;;;;;;;;;;;;;2206960;59;2559;-22
2023/04/21 09:41:29;;;;;;;;;;;;;;;;;;2205352;67;2092;-22
2023/04/21 09:44:00;;;;;;;;;;;;;;;;;;2206745;67;2168;-22
2023/04/21 09:46:34;;;;;;;;;;;;;;;;;;2204817;59;2513;-22
2023/04/21 09:49:05;;;;;;;;;;;;;;;;;;2205820;59;2747;-22
2023/04/21 09:51:35;;;;;;;;;;;;;;;;;;2205930;59;2312;-22
2023/04/21 09:54:11;;;;;;;;;;;;;;;;;;2206453;59;2102;-22
2023/04/21 09:56:42;;;;;;;;;;;;;;;;;;2203431;59;2350;-22
2023/04/21 09:59:16;;;;;;;;;;;;;;;;;;2206919;59;2151;-22
2023/04/21 10:01:48;;;;;;;;;;;;;;;;;;2206516;59;2482;-22
2023/04/21 10:04:18;;;;;;;;;;;;;;;;;;2206631;59;2732;-22
2023/04/21 10:06:50;;;;;;;;;;;;;;;;;;2206959;59;2813;-22
2023/04/21 10:09:22;;;;;;;;;;;;;;;;;;2206603;67;2542;-22
2023/04/21 10:11:52;;;;;;;;;;;;;;;;;;2206563;60;2762;-23
2023/04/21 10:14:26;;;;;;;;;;;;;;;;;;2206909;67;3074;-23
2023/04/21 10:16:57;;;;;;;;;;;;;;;;;;2204129;59;13763;-23
2023/04/21 10:19:27;;;;;;;;;;;;;;;;;;2206977;67;2097;-23
2023/04/21 10:21:58;;;;;;;;;;;;;;;;;;2206194;59;1785;-23
2023/04/21 10:24:29;;;;;;;;;;;;;;;;;;2206311;67;2191;-23
2023/04/21 10:27:00;;;;;;;;;;;;;;;;;;2206784;67;2590;-23
2023/04/21 10:29:32;;;;;;;;;;;;;;;;;;2207102;59;2282;-22
2023/04/21 10:32:03;;;;;;;;;;;;;;;;;;2204609;59;2157;-23
2023/04/21 10:34:35;;;;;;;;;;;;;;;;;;2206912;59;2114;-23
2023/04/21 10:37:05;;;;;;;;;;;;;;;;;;2206848;67;2550;-23
2023/04/21 10:39:41;;;;;;;;;;;;;;;;;;2206743;67;2650;-23
2023/04/21 10:42:11;;;;;;;;;;;;;;;;;;2206954;67;2120;-23
2023/04/21 10:45:03;;;;;;;;;;;;;;;;;;2207432;67;2093;-23
2023/04/21 10:47:40;;;;;;;;;;;;;;;;;;2200718;64;15089;-23
2023/04/21 10:50:14;;;;;;;;;;;;;;;;;;2207323;67;2356;-22
2023/04/21 10:52:45;;;;;;;;;;;;;;;;;;2208046;59;2619;-22
2023/04/21 10:55:16;;;;;;;;;;;;;;;;;;2204891;59;3050;-22
2023/04/21 10:57:46;;;;;;;;;;;;;;;;;;2209092;59;2162;-23
2023/04/21 11:00:18;;;;;;;;;;;;;;;;;;2206677;59;13453;-23
2023/04/21 11:02:55;;;;;;;;;;;;;;;;;;2209572;59;2106;-23
2023/04/21 11:05:30;;;;;;;;;;;;;;;;;;2208524;67;2138;-23
2023/04/21 11:08:01;;;;;;;;;;;;;;;;;;2208064;67;2444;-23
2023/04/21 11:10:44;;;;;;;;;;;;;;;;;;2208552;59;2788;-23
2023/04/21 11:13:15;;;;;;;;;;;;;;;;;;2207441;67;2064;-23
2023/04/21 11:15:54;;;;;;;;;;;;;;;;;;2208005;67;2254;-23
2023/04/21 11:18:38;;;;;;;;;;;;;;;;;;2208147;67;1874;-22
2023/04/21 11:21:11;;;;;;;;;;;;;;;;;;2208132;59;2840;-23
2023/04/21 11:23:46;;;;;;;;;;;;;;;;;;2208325;67;2724;-23
2023/04/21 11:26:18;;;;;;;;;;;;;;;;;;2206691;59;2619;-23
2023/04/21 11:28:48;;;;;;;;;;;;;;;;;;2204125;59;3186;-22
2023/04/21 11:31:19;;;;;;;;;;;;;;;;;;2206275;59;2568;-23
2023/04/21 11:33:49;;;;;;;;;;;;;;;;;;2207343;67;2565;-23
2023/04/21 11:36:20;;;;;;;;;;;;;;;;;;2205448;59;2786;-22
2023/04/21 11:38:50;;;;;;;;;;;;;;;;;;2207562;67;1829;-22
2023/04/21 11:41:24;;;;;;;;;;;;;;;;;;2206464;59;2618;-22
2023/04/21 11:43:54;;;;;;;;;;;;;;;;;;2199747;67;1949;-23
2023/04/21 11:46:27;;;;;;;;;;;;;;;;;;2203961;59;14374;-24
2023/04/21 11:48:59;;;;;;;;;;;;;;;;;;2203399;67;2076;-22
2023/04/21 11:51:32;;;;;;;;;;;;;;;;;;2207114;59;2150;-22
2023/04/21 11:54:06;;;;;;;;;;;;;;;;;;2207332;59;2469;-22
2023/04/21 11:56:38;;;;;;;;;;;;;;;;;;2204200;59;2101;-23
2023/04/21 11:59:08;;;;;;;;;;;;;;;;;;2206689;59;2728;-24
2023/04/21 12:01:42;;;;;;;;;;;;;;;;;;2204525;59;13499;-24
2023/04/21 12:04:15;;;;;;;;;;;;;;;;;;2207213;59;2176;-24
2023/04/21 12:06:46;;;;;;;;;;;;;;;;;;2206981;59;2300;-24
2023/04/21 12:09:17;;;;;;;;;;;;;;;;;;2207619;67;2107;-24
2023/04/21 12:11:49;;;;;;;;;;;;;;;;;;2207552;59;2296;-24
2023/04/21 12:14:21;;;;;;;;;;;;;;;;;;2203198;67;2622;-24
2023/04/21 12:16:56;;;;;;;;;;;;;;;;;;2204093;59;14255;-24
2023/04/21 12:19:41;;;;;;;;;;;;;;;;;;2206940;67;2653;-24
2023/04/21 12:22:13;;;;;;;;;;;;;;;;;;2207008;59;2557;-24
2023/04/21 12:24:44;;;;;;;;;;;;;;;;;;2207792;67;2089;-24
2023/04/21 12:27:14;;;;;;;;;;;;;;;;;;2206372;59;2480;-24
2023/04/21 12:29:47;;;;;;;;;;;;;;;;;;2208051;67;2031;-24
2023/04/21 12:32:17;;;;;;;;;;;;;;;;;;2203671;59;12788;-24
2023/04/21 12:34:48;;;;;;;;;;;;;;;;;;2203767;67;2417;-24
2023/04/21 12:37:18;;;;;;;;;;;;;;;;;;2205958;59;2126;-24
2023/04/21 12:39:48;;;;;;;;;;;;;;;;;;2206790;59;2223;-24
2023/04/21 12:42:18;;;;;;;;;;;;;;;;;;2206678;59;2732;-24
2023/04/21 12:44:48;;;;;;;;;;;;;;;;;;2207583;67;2053;-24
2023/04/21 12:47:22;;;;;;;;;;;;;;;;;;2204315;59;12662;-24
2023/04/21 12:49:52;;;;;;;;;;;;;;;;;;2207467;67;1977;-24
2023/04/21 12:52:22;;;;;;;;;;;;;;;;;;2206998;59;1758;-24
2023/04/21 12:54:52;;;;;;;;;;;;;;;;;;2208359;59;2076;-24
2023/04/21 12:57:23;;;;;;;;;;;;;;;;;;2207098;67;2066;-23
2023/04/21 12:59:53;;;;;;;;;;;;;;;;;;2207850;59;2090;-24
2023/04/21 13:02:24;;;;;;;;;;;;;;;;;;2207285;59;2103;-23
2023/04/21 13:04:54;;;;;;;;;;;;;;;;;;2207957;59;3593;-23
2023/04/21 13:07:25;;;;;;;;;;;;;;;;;;2206115;67;2956;-23
2023/04/21 13:09:56;;;;;;;;;;;;;;;;;;2207466;67;2735;-23
2023/04/21 13:12:26;;;;;;;;;;;;;;;;;;2206961;67;2465;-23
2023/04/21 13:14:56;;;;;;;;;;;;;;;;;;2207621;67;2560;-23
2023/04/21 13:17:27;;;;;;;;;;;;;;;;;;2200298;59;15124;-23
2023/04/21 13:19:57;;;;;;;;;;;;;;;;;;2204027;67;2204;-23
2023/04/21 13:22:27;;;;;;;;;;;;;;;;;;2203397;59;2645;-23
2023/04/21 13:24:57;;;;;;;;;;;;;;;;;;2206979;67;2704;-23
2023/04/21 13:27:28;;;;;;;;;;;;;;;;;;2206862;59;3621;-23
2023/04/21 13:29:58;;;;;;;;;;;;;;;;;;2207237;59;2844;-23
2023/04/21 13:32:28;;;;;;;;;;;;;;;;;;2203815;59;12714;-23
2023/04/21 13:35:07;;;;;;;;;;;;;;;;;;2207092;67;1985;-23
2023/04/21 13:37:38;;;;;;;;;;;;;;;;;;2207590;67;2090;-23
2023/04/21 13:40:08;;;;;;;;;;;;;;;;;;2202413;59;3005;-23
2023/04/21 13:42:42;;;;;;;;;;;;;;;;;;2207218;59;2189;-23
2023/04/21 13:45:15;;;;;;;;;;;;;;;;;;2201766;67;2132;-23
2023/04/21 13:47:46;;;;;;;;;;;;;;;;;;2202139;67;6627;-23
2023/04/21 13:50:16;;;;;;;;;;;;;;;;;;2206355;67;2734;-23
2023/04/21 13:52:46;;;;;;;;;;;;;;;;;;2206846;59;2956;-23
2023/04/21 13:55:17;;;;;;;;;;;;;;;;;;2206234;59;2756;-23
2023/04/21 13:57:47;;;;;;;;;;;;;;;;;;2206767;59;2150;-23
2023/04/21 14:00:17;;;;;;;;;;;;;;;;;;2204706;59;2873;-23
2023/04/21 14:02:47;;;;;;;;;;;;;;;;;;2205952;59;13038;-23
2023/04/21 14:05:18;;;;;;;;;;;;;;;;;;2206559;59;2058;-23
2023/04/21 14:07:51;;;;;;;;;;;;;;;;;;2207272;67;3056;-23
2023/04/21 14:10:21;;;;;;;;;;;;;;;;;;2206808;67;2203;-23
2023/04/21 14:12:51;;;;;;;;;;;;;;;;;;2207892;67;2222;-23
2023/04/21 14:15:21;;;;;;;;;;;;;;;;;;2205470;67;13015;-23
2023/04/21 14:17:52;;;;;;;;;;;;;;;;;;2207759;67;2121;-23
2023/04/21 14:20:25;;;;;;;;;;;;;;;;;;2207551;59;2091;-23
2023/04/21 14:22:56;;;;;;;;;;;;;;;;;;2207803;67;2125;-23
2023/04/21 14:25:26;;;;;;;;;;;;;;;;;;2206985;67;3069;-23
2023/04/21 14:27:56;;;;;;;;;;;;;;;;;;2204018;59;3129;-23
2023/04/21 14:30:26;;;;;;;;;;;;;;;;;;2201128;59;14474;-23
2023/04/21 14:32:57;;;;;;;;;;;;;;;;;;2207462;59;2512;-23
2023/04/21 14:35:27;;;;;;;;;;;;;;;;;;2206709;67;2983;-23
2023/04/21 14:37:58;;;;;;;;;;;;;;;;;;2207119;67;2041;-23
2023/04/21 14:40:31;;;;;;;;;;;;;;;;;;2203636;63;2682;-23
2023/04/21 14:43:02;;;;;;;;;;;;;;;;;;2206674;67;2127;-23
2023/04/21 14:45:35;;;;;;;;;;;;;;;;;;2206751;67;3065;-23
2023/04/21 14:48:05;;;;;;;;;;;;;;;;;;2206555;59;2095;-23
2023/04/21 14:50:35;;;;;;;;;;;;;;;;;;2206706;60;1769;-23
2023/04/21 14:53:06;;;;;;;;;;;;;;;;;;2205710;59;2380;-23
2023/04/21 14:55:36;;;;;;;;;;;;;;;;;;2202921;59;2283;-23
2023/04/21 14:58:06;;;;;;;;;;;;;;;;;;2206494;59;2828;-23
2023/04/21 15:00:37;;;;;;;;;;;;;;;;;;2204397;67;13537;-23
2023/04/21 15:03:07;;;;;;;;;;;;;;;;;;2203280;59;2395;-23
2023/04/21 15:05:38;;;;;;;;;;;;;;;;;;2202292;59;2321;-23
2023/04/21 15:08:08;;;;;;;;;;;;;;;;;;2204928;59;2680;-23
2023/04/21 15:10:39;;;;;;;;;;;;;;;;;;2205969;59;2307;-23
2023/04/21 15:13:10;;;;;;;;;;;;;;;;;;2206088;67;2256;-23
2023/04/21 15:15:41;;;;;;;;;;;;;;;;;;2204026;59;13170;-23
2023/04/21 15:18:11;;;;;;;;;;;;;;;;;;2204155;59;2572;-23
2023/04/21 15:20:43;;;;;;;;;;;;;;;;;;2207255;59;2110;-23
2023/04/21 15:23:13;;;;;;;;;;;;;;;;;;2205818;59;2304;-23
2023/04/21 15:25:44;;;;;;;;;;;;;;;;;;2206273;67;2592;-23
2023/04/21 15:28:14;;;;;;;;;;;;;;;;;;2201154;59;2653;-23
2023/04/21 15:30:44;;;;;;;;;;;;;;;;;;2203461;59;18202;-23
2023/04/21 15:33:16;;;;;;;;;;;;;;;;;;2204432;59;2566;-23
2023/04/21 15:35:47;;;;;;;;;;;;;;;;;;2206127;67;2126;-23
2023/04/21 15:38:17;;;;;;;;;;;;;;;;;;2204321;59;2151;-23
2023/04/21 15:40:47;;;;;;;;;;;;;;;;;;2205737;59;2013;-23
2023/04/21 15:43:17;;;;;;;;;;;;;;;;;;2204114;59;3486;-22
2023/04/21 15:45:48;;;;;;;;;;;;;;;;;;2199029;59;14981;-23
2023/04/21 15:48:19;;;;;;;;;;;;;;;;;;2204955;59;2096;-23
2023/04/21 15:50:49;;;;;;;;;;;;;;;;;;2206718;67;2257;-23
2023/04/21 15:53:19;;;;;;;;;;;;;;;;;;2205055;59;3721;-23
2023/04/21 15:55:51;;;;;;;;;;;;;;;;;;2206584;59;2288;-23
2023/04/21 15:58:24;;;;;;;;;;;;;;;;;;2206476;59;3048;-23
2023/04/21 16:00:54;;;;;;;;;;;;;;;;;;2204592;59;12849;-23
2023/04/21 16:03:25;;;;;;;;;;;;;;;;;;2206052;59;2809;-23
2023/04/21 16:05:55;;;;;;;;;;;;;;;;;;2206038;67;2420;-23
2023/04/21 16:08:25;;;;;;;;;;;;;;;;;;2205830;59;2562;-23
2023/04/21 16:10:55;;;;;;;;;;;;;;;;;;2207370;67;2560;-23
2023/04/21 16:13:26;;;;;;;;;;;;;;;;;;2202354;59;3447;-23
2023/04/21 16:15:56;;;;;;;;;;;;;;;;;;2205358;67;14208;-23
2023/04/21 16:18:26;;;;;;;;;;;;;;;;;;2202540;59;2313;-23
2023/04/21 16:20:57;;;;;;;;;;;;;;;;;;2206219;59;3081;-23
2023/04/21 16:23:27;;;;;;;;;;;;;;;;;;2202725;67;2214;-23
2023/04/21 16:25:57;;;;;;;;;;;;;;;;;;2206390;59;2730;-23
2023/04/21 16:28:27;;;;;;;;;;;;;;;;;;2206591;59;2500;-23
2023/04/21 16:30:58;;;;;;;;;;;;;;;;;;2202838;59;2641;-23
2023/04/21 16:33:28;;;;;;;;;;;;;;;;;;2202281;59;2433;-23
2023/04/21 16:35:58;;;;;;;;;;;;;;;;;;2205681;59;2134;-23
2023/04/21 16:38:28;;;;;;;;;;;;;;;;;;2205825;59;2609;-23
2023/04/21 16:40:58;;;;;;;;;;;;;;;;;;2206039;67;2039;-23
2023/04/21 16:43:31;;;;;;;;;;;;;;;;;;2206405;59;3014;-23
2023/04/21 16:46:02;;;;;;;;;;;;;;;;;;2204439;59;12649;-23
2023/04/21 16:48:32;;;;;;;;;;;;;;;;;;2206527;67;1973;-23
2023/04/21 16:51:02;;;;;;;;;;;;;;;;;;2205600;59;2212;-23
2023/04/21 16:53:33;;;;;;;;;;;;;;;;;;2202925;59;2378;-23
2023/04/21 16:56:04;;;;;;;;;;;;;;;;;;2206221;59;2237;-23
2023/04/21 16:58:35;;;;;;;;;;;;;;;;;;2206839;59;2639;-23
2023/04/21 17:01:06;;;;;;;;;;;;;;;;;;2203570;59;16006;-23
2023/04/21 17:03:36;;;;;;;;;;;;;;;;;;2204653;59;2090;-23
2023/04/21 17:06:09;;;;;;;;;;;;;;;;;;2205356;59;2707;-23
2023/04/21 17:08:39;;;;;;;;;;;;;;;;;;2204826;67;2329;-23
2023/04/21 17:11:09;;;;;;;;;;;;;;;;;;2206125;59;1670;-23
2023/04/21 17:13:40;;;;;;;;;;;;;;;;;;2206770;67;2406;-23
2023/04/21 17:16:10;;;;;;;;;;;;;;;;;;2199819;59;13550;-23
2023/04/21 17:18:43;;;;;;;;;;;;;;;;;;2202278;67;1953;-23
2023/04/21 17:21:14;;;;;;;;;;;;;;;;;;2206189;59;2705;-23
2023/04/21 17:23:44;;;;;;;;;;;;;;;;;;2206692;67;2736;-23
2023/04/21 17:26:15;;;;;;;;;;;;;;;;;;2206692;67;2150;-23
2023/04/21 17:28:45;;;;;;;;;;;;;;;;;;2206335;59;3115;-23
2023/04/21 17:31:15;;;;;;;;;;;;;;;;;;2206454;59;2069;-23